Time;durP1;ratioP1;P1;durP2;ratioP2;P2;SDS_P1;SDS_P2;PMS_P1;PMS_P2;Temp;Humidity;BMP_temperature;BMP_pressure;BME280_temperature;BME280_humidity;BME280_pressure;Samples;Min_cycle;Max_cycle;Signal;HPM_P1;HPM_P2
2022/09/17 00:01:00;;;;;;;0.80;0.80;;;;;;;;;;5038213;28;20032;-88
2022/09/17 00:03:27;;;;;;;1.83;0.90;;;;;;;;;;5049852;28;20028;-87
2022/09/17 00:06:01;;;;;;;0.93;0.63;;;;;;;;;;5028909;28;20027;-87
2022/09/17 00:08:49;;;;;;;2.90;0.77;;;;;;;;;;5055844;28;20020;-88
2022/09/17 00:11:26;;;;;;;0.80;0.80;;;;;;;;;;5049826;28;20033;-88
2022/09/17 00:13:53;;;;;;;0.55;0.55;;;;;;;;;;5032495;28;20060;-87
2022/09/17 00:16:44;;;;;;;0.73;0.73;;;;;;;;;;5052848;28;20021;-87
2022/09/17 00:19:16;;;;;;;4.00;1.05;;;;;;;;;;5042926;28;20080;-88
2022/09/17 00:21:41;;;;;;;;;;;;;;;;;;5055355;28;20629;-86
2022/09/17 00:24:09;;;;;;;2.15;1.00;;;;;;;;;;5058787;28;19918;-87
2022/09/17 00:26:35;;;;;;;0.70;0.70;;;;;;;;;;5056357;28;20032;-86
2022/09/17 00:29:01;;;;;;;1.73;0.98;;;;;;;;;;5039105;28;20021;-88
2022/09/17 00:31:27;;;;;;;1.27;0.68;;;;;;;;;;5040648;28;20025;-86
2022/09/17 00:33:54;;;;;;;0.88;0.88;;;;;;;;;;5058950;28;20036;-86
2022/09/17 00:36:20;;;;;;;6.28;1.13;;;;;;;;;;5057398;28;20028;-86
2022/09/17 00:38:53;;;;;;;0.73;0.73;;;;;;;;;;5058289;28;20147;-86
2022/09/17 00:41:19;;;;;;;2.60;0.70;;;;;;;;;;5040210;28;20055;-86
2022/09/17 00:43:48;;;;;;;2.92;0.90;;;;;;;;;;5058157;28;20112;-85
2022/09/17 00:46:36;;;;;;;1.67;1.25;;;;;;;;;;5058557;28;20028;-86
2022/09/17 00:49:06;;;;;;;1.58;1.05;;;;;;;;;;5057256;28;20398;-86
2022/09/17 00:51:56;;;;;;;1.83;0.90;;;;;;;;;;5058169;28;20047;-85
2022/09/17 00:54:23;;;;;;;1.27;0.90;;;;;;;;;;5056005;28;20049;-86
2022/09/17 00:56:50;;;;;;;4.68;1.02;;;;;;;;;;5039496;28;20025;-85
2022/09/17 00:59:17;;;;;;;0.85;0.85;;;;;;;;;;5040064;28;20172;-86
2022/09/17 01:01:42;;;;;;;2.05;0.80;;;;;;;;;;5041027;28;20029;-86
2022/09/17 01:04:18;;;;;;;1.80;0.95;;;;;;;;;;5059123;28;20096;-86
2022/09/17 01:06:58;;;;;;;0.80;0.80;;;;;;;;;;5059483;28;20020;-85
2022/09/17 01:09:38;;;;;;;0.68;0.68;;;;;;;;;;5050560;28;20021;-85
2022/09/17 01:12:11;;;;;;;0.93;0.93;;;;;;;;;;5049727;28;20087;-84
2022/09/17 01:15:01;;;;;;;0.80;0.80;;;;;;;;;;5034405;28;20056;-84
2022/09/17 01:17:41;;;;;;;1.30;1.02;;;;;;;;;;5053096;28;20027;-85
2022/09/17 01:20:31;;;;;;;1.73;1.00;;;;;;;;;;5038012;28;20025;-85
2022/09/17 01:23:20;;;;;;;1.02;0.82;;;;;;;;;;5038260;28;20017;-85
2022/09/17 01:26:24;;;;;;;0.75;0.75;;;;;;;;;;5053855;28;20032;-85
2022/09/17 01:29:03;;;;;;;3.00;1.23;;;;;;;;;;5054293;28;20024;-86
2022/09/17 01:31:39;;;;;;;0.98;0.98;;;;;;;;;;5035503;28;20097;-86
2022/09/17 01:34:43;;;;;;;1.92;1.00;;;;;;;;;;5057600;28;20025;-86
2022/09/17 01:37:14;;;;;;;1.80;0.95;;;;;;;;;;4983767;28;20033;-87
2022/09/17 01:39:59;;;;;;;4.13;1.03;;;;;;;;;;5054808;28;20024;-87
2022/09/17 01:42:38;;;;;;;1.85;0.80;;;;;;;;;;5040416;28;20075;-85
2022/09/17 01:45:09;;;;;;;2.35;0.90;;;;;;;;;;5053087;28;20013;-86
2022/09/17 01:47:43;;;;;;;2.65;1.00;;;;;;;;;;5057017;28;20027;-85
2022/09/17 01:50:16;;;;;;;1.13;1.00;;;;;;;;;;5064504;28;20081;-86
2022/09/17 01:52:44;;;;;;;2.65;1.02;;;;;;;;;;5057860;28;20025;-86
2022/09/17 01:55:14;;;;;;;1.88;1.15;;;;;;;;;;5056464;28;20021;-86
2022/09/17 01:57:54;;;;;;;2.03;0.95;;;;;;;;;;5060788;28;20028;-86
2022/09/17 02:00:21;;;;;;;1.45;0.90;;;;;;;;;;5077437;28;20017;-85
2022/09/17 02:03:09;;;;;;;1.42;1.00;;;;;;;;;;5063791;28;20039;-87
2022/09/17 02:05:49;;;;;;;0.90;0.90;;;;;;;;;;5062485;28;20497;-88
2022/09/17 02:08:22;;;;;;;1.50;1.15;;;;;;;;;;5056354;28;20059;-87
2022/09/17 02:10:55;;;;;;;1.48;1.27;;;;;;;;;;5059154;28;20050;-87
2022/09/17 02:13:29;;;;;;;1.83;0.85;;;;;;;;;;5065894;28;20033;-88
2022/09/17 02:16:01;;;;;;;2.20;1.35;;;;;;;;;;5063872;28;20047;-88
2022/09/17 02:18:50;;;;;;;1.88;1.05;;;;;;;;;;5046860;28;20048;-87
2022/09/17 02:21:41;;;;;;;1.40;1.08;;;;;;;;;;5035025;28;20032;-88
2022/09/17 02:24:23;;;;;;;1.37;1.27;;;;;;;;;;5038114;28;20504;-87
2022/09/17 02:27:00;;;;;;;1.30;1.20;;;;;;;;;;5054397;28;20277;-86
2022/09/17 02:29:33;;;;;;;1.73;1.00;;;;;;;;;;5047831;28;20104;-87
2022/09/17 02:31:59;;;;;;;2.13;0.80;;;;;;;;;;5055555;28;20115;-87
2022/09/17 02:34:28;;;;;;;5.80;0.98;;;;;;;;;;5037226;28;20386;-87
2022/09/17 02:36:54;;;;;;;5.25;1.15;;;;;;;;;;5055186;28;20556;-87
2022/09/17 02:39:19;;;;;;;2.85;0.80;;;;;;;;;;5056010;28;20029;-87
2022/09/17 02:41:55;;;;;;;3.90;1.27;;;;;;;;;;5064106;28;20028;-87
2022/09/17 02:44:54;;;;;;;2.05;1.40;;;;;;;;;;5019463;28;20022;-88
2022/09/17 02:47:45;;;;;;;1.35;1.08;;;;;;;;;;5048821;28;20025;-88
2022/09/17 02:50:48;;;;;;;2.95;1.10;;;;;;;;;;5055864;28;20029;-88
2022/09/17 02:53:31;;;;;;;3.92;1.10;;;;;;;;;;5063682;28;20024;-88
2022/09/17 02:56:22;;;;;;;0.98;0.80;;;;;;;;;;5060953;28;20027;-87
2022/09/17 02:59:18;;;;;;;2.03;1.27;;;;;;;;;;5034438;28;20021;-86
2022/09/17 03:02:06;;;;;;;1.02;0.85;;;;;;;;;;5051698;28;20099;-86
2022/09/17 03:04:33;;;;;;;5.40;1.77;;;;;;;;;;5055591;28;20498;-87
2022/09/17 03:07:04;;;;;;;3.30;1.13;;;;;;;;;;5055797;28;20032;-87
2022/09/17 03:09:29;;;;;;;0.98;0.88;;;;;;;;;;5066279;28;20029;-86
2022/09/17 03:11:58;;;;;;;0.88;0.88;;;;;;;;;;5039888;28;20035;-86
2022/09/17 03:14:23;;;;;;;1.10;1.00;;;;;;;;;;5059190;28;20025;-88
2022/09/17 03:16:48;;;;;;;5.60;1.27;;;;;;;;;;5056590;28;20029;-87
2022/09/17 03:19:14;;;;;;;1.13;0.93;;;;;;;;;;5056535;28;20100;-87
2022/09/17 03:21:39;;;;;;;1.15;1.05;;;;;;;;;;5055535;28;20104;-87
2022/09/17 03:24:05;;;;;;;1.95;0.98;;;;;;;;;;5054912;28;20031;-87
2022/09/17 03:26:30;;;;;;;1.80;1.00;;;;;;;;;;5057189;28;20032;-88
2022/09/17 03:28:56;;;;;;;3.03;1.00;;;;;;;;;;5054536;28;20033;-86
2022/09/17 03:31:21;;;;;;;6.13;1.02;;;;;;;;;;5041182;28;20025;-88
2022/09/17 03:33:47;;;;;;;1.27;1.05;;;;;;;;;;5063399;28;20064;-90
2022/09/17 03:36:12;;;;;;;9.35;1.60;;;;;;;;;;5061118;28;20042;-88
2022/09/17 03:38:38;;;;;;;1.35;1.00;;;;;;;;;;5064186;28;20027;-87
2022/09/17 03:41:08;;;;;;;2.58;1.02;;;;;;;;;;5057474;28;20033;-88
2022/09/17 03:43:33;;;;;;;5.78;1.42;;;;;;;;;;5053953;28;20025;-88
2022/09/17 03:45:59;;;;;;;1.00;0.98;;;;;;;;;;5067180;28;20077;-88
2022/09/17 03:48:25;;;;;;;4.07;1.02;;;;;;;;;;5053688;28;20054;-88
2022/09/17 03:50:50;;;;;;;3.45;1.10;;;;;;;;;;5063218;28;20036;-88
2022/09/17 03:53:16;;;;;;;6.57;1.30;;;;;;;;;;5059832;28;20029;-88
2022/09/17 03:55:42;;;;;;;4.30;1.15;;;;;;;;;;5059538;28;20048;-89
2022/09/17 03:58:08;;;;;;;1.80;1.05;;;;;;;;;;5041692;28;20032;-89
2022/09/17 04:00:35;;;;;;;6.10;1.30;;;;;;;;;;5050668;28;20032;-88
2022/09/17 04:03:02;;;;;;;8.02;1.20;;;;;;;;;;5058229;28;20043;-88
2022/09/17 04:05:27;;;;;;;2.15;0.98;;;;;;;;;;5062876;28;20031;-88
2022/09/17 04:07:52;;;;;;;1.50;1.15;;;;;;;;;;5060740;28;20113;-88
2022/09/17 04:10:18;;;;;;;2.08;1.45;;;;;;;;;;5062756;28;20021;-88
2022/09/17 04:12:43;;;;;;;0.80;0.80;;;;;;;;;;5061178;28;20108;-88
2022/09/17 04:15:09;;;;;;;2.95;1.17;;;;;;;;;;5061288;28;20135;-88
2022/09/17 04:17:34;;;;;;;1.27;1.10;;;;;;;;;;5061544;28;20032;-87
2022/09/17 04:20:00;;;;;;;0.93;0.90;;;;;;;;;;5063441;28;20060;-88
2022/09/17 04:22:25;;;;;;;3.30;1.40;;;;;;;;;;5044495;28;20025;-88
2022/09/17 04:24:51;;;;;;;5.05;1.13;;;;;;;;;;5062164;28;20017;-88
2022/09/17 04:27:17;;;;;;;4.07;1.52;;;;;;;;;;5061844;28;20021;-88
2022/09/17 04:29:42;;;;;;;1.58;1.02;;;;;;;;;;5051279;28;20538;-88
2022/09/17 04:32:08;;;;;;;1.02;1.00;;;;;;;;;;5060063;28;20111;-88
2022/09/17 04:34:33;;;;;;;1.60;1.30;;;;;;;;;;5060981;28;20060;-87
2022/09/17 04:36:59;;;;;;;3.72;1.08;;;;;;;;;;5062906;28;20571;-87
2022/09/17 04:39:24;;;;;;;3.47;1.40;;;;;;;;;;5049080;28;20120;-86
2022/09/17 04:41:49;;;;;;;4.65;1.20;;;;;;;;;;5065287;28;20021;-88
2022/09/17 04:44:15;;;;;;;12.27;1.50;;;;;;;;;;5063307;28;20104;-87
2022/09/17 04:46:40;;;;;;;4.53;1.48;;;;;;;;;;5056331;28;20544;-87
2022/09/17 04:49:06;;;;;;;4.35;1.00;;;;;;;;;;5055802;28;20021;-88
2022/09/17 04:51:31;;;;;;;1.95;1.30;;;;;;;;;;5045642;28;20399;-88
2022/09/17 04:53:57;;;;;;;2.90;1.63;;;;;;;;;;5063505;28;20486;-87
2022/09/17 04:56:22;;;;;;;2.78;1.20;;;;;;;;;;5047465;28;20044;-87
2022/09/17 04:58:48;;;;;;;7.10;1.55;;;;;;;;;;5066916;28;20036;-87
2022/09/17 05:01:14;;;;;;;3.85;1.55;;;;;;;;;;5051901;28;20013;-88
2022/09/17 05:03:39;;;;;;;1.55;1.40;;;;;;;;;;5064971;28;20025;-87
2022/09/17 05:06:04;;;;;;;3.90;1.40;;;;;;;;;;5062219;28;20017;-86
2022/09/17 05:08:30;;;;;;;1.20;1.20;;;;;;;;;;5058425;28;20025;-86
2022/09/17 05:10:55;;;;;;;3.70;1.48;;;;;;;;;;5068039;28;20039;-87
2022/09/17 05:13:21;;;;;;;2.50;1.52;;;;;;;;;;5042836;28;20029;-87
2022/09/17 05:15:46;;;;;;;3.65;1.27;;;;;;;;;;5061733;28;20025;-86
2022/09/17 05:18:12;;;;;;;2.92;1.73;;;;;;;;;;5060489;28;20045;-88
2022/09/17 05:20:37;;;;;;;1.83;1.55;;;;;;;;;;5060091;28;20089;-86
2022/09/17 05:23:03;;;;;;;4.50;1.50;;;;;;;;;;5043545;28;20029;-89
2022/09/17 05:25:29;;;;;;;5.22;1.50;;;;;;;;;;5057838;28;20032;-88
2022/09/17 05:27:55;;;;;;;3.17;1.63;;;;;;;;;;5057753;28;20025;-89
2022/09/17 05:30:21;;;;;;;2.58;1.58;;;;;;;;;;5047927;28;20048;-88
2022/09/17 05:32:46;;;;;;;1.42;1.25;;;;;;;;;;5056963;28;20030;-88
2022/09/17 05:35:11;;;;;;;3.22;1.40;;;;;;;;;;5039403;28;20032;-87
2022/09/17 05:37:37;;;;;;;3.65;1.75;;;;;;;;;;5040590;28;20017;-87
2022/09/17 05:40:05;;;;;;;2.03;1.52;;;;;;;;;;5058385;28;20109;-87
2022/09/17 05:42:31;;;;;;;2.58;1.45;;;;;;;;;;5057191;28;20028;-87
2022/09/17 05:44:56;;;;;;;6.05;1.80;;;;;;;;;;5056726;28;20036;-89
2022/09/17 05:47:21;;;;;;;4.93;1.38;;;;;;;;;;5056001;28;20362;-88
2022/09/17 05:49:47;;;;;;;1.65;1.48;;;;;;;;;;5055739;28;20037;-86
2022/09/17 05:52:12;;;;;;;2.95;1.15;;;;;;;;;;5038127;28;20089;-88
2022/09/17 05:54:37;;;;;;;3.47;1.45;;;;;;;;;;5056512;28;20070;-86
2022/09/17 05:57:03;;;;;;;2.95;1.63;;;;;;;;;;5055720;28;20039;-88
2022/09/17 05:59:28;;;;;;;4.75;1.50;;;;;;;;;;5045059;28;20029;-86
2022/09/17 06:01:54;;;;;;;4.57;2.03;;;;;;;;;;5055577;28;20471;-87
2022/09/17 06:04:19;;;;;;;6.28;1.65;;;;;;;;;;5057068;28;20017;-86
2022/09/17 06:06:44;;;;;;;1.52;1.02;;;;;;;;;;5061786;28;20101;-89
2022/09/17 06:09:10;;;;;;;2.97;1.48;;;;;;;;;;5062714;28;20029;-87
2022/09/17 06:11:36;;;;;;;3.22;1.63;;;;;;;;;;5059872;28;20029;-87
2022/09/17 06:14:01;;;;;;;3.58;1.92;;;;;;;;;;5058531;28;20078;-86
2022/09/17 06:16:27;;;;;;;2.58;1.30;;;;;;;;;;5059302;28;20028;-86
2022/09/17 06:18:53;;;;;;;3.45;1.73;;;;;;;;;;5059439;28;20033;-86
2022/09/17 06:21:20;;;;;;;1.40;1.30;;;;;;;;;;5059206;28;20024;-86
2022/09/17 06:23:46;;;;;;;1.38;1.35;;;;;;;;;;5058424;28;20024;-86
2022/09/17 06:26:12;;;;;;;7.50;1.63;;;;;;;;;;5058659;28;20017;-86
2022/09/17 06:28:38;;;;;;;2.10;1.30;;;;;;;;;;5047073;28;20036;-86
2022/09/17 06:31:04;;;;;;;1.63;1.50;;;;;;;;;;5046566;28;20493;-87
2022/09/17 06:33:31;;;;;;;2.63;1.60;;;;;;;;;;5041120;28;20390;-86
2022/09/17 06:36:01;;;;;;;2.45;1.55;;;;;;;;;;5058809;28;20120;-87
2022/09/17 06:38:28;;;;;;;1.50;1.40;;;;;;;;;;5058737;28;20036;-87
2022/09/17 06:40:54;;;;;;;4.88;1.70;;;;;;;;;;5058096;28;20037;-87
2022/09/17 06:43:20;;;;;;;5.18;1.90;;;;;;;;;;5058793;28;20081;-86
2022/09/17 06:45:52;;;;;;;2.55;1.52;;;;;;;;;;5062803;28;20020;-88
2022/09/17 06:48:18;;;;;;;3.72;1.50;;;;;;;;;;5044242;28;20024;-87
2022/09/17 06:50:43;;;;;;;3.72;1.52;;;;;;;;;;5059464;28;20116;-88
2022/09/17 06:53:09;;;;;;;5.47;1.85;;;;;;;;;;5058889;28;20398;-87
2022/09/17 06:55:34;;;;;;;2.72;1.55;;;;;;;;;;5058520;28;20090;-87
2022/09/17 06:58:00;;;;;;;1.35;1.25;;;;;;;;;;5041666;28;20024;-88
2022/09/17 07:00:26;;;;;;;2.05;1.30;;;;;;;;;;5048368;28;20475;-88
2022/09/17 07:02:58;;;;;;;3.17;1.70;;;;;;;;;;5056672;28;20025;-89
2022/09/17 07:05:26;;;;;;;1.90;1.10;;;;;;;;;;5055646;28;20040;-89
2022/09/17 07:07:51;;;;;;;3.90;1.52;;;;;;;;;;5055063;28;20027;-89
2022/09/17 07:10:17;;;;;;;3.00;1.40;;;;;;;;;;5064262;28;20153;-87
2022/09/17 07:12:42;;;;;;;1.83;1.40;;;;;;;;;;5054775;28;20029;-89
2022/09/17 07:15:10;;;;;;;2.97;1.80;;;;;;;;;;5055606;28;20387;-88
2022/09/17 07:17:36;;;;;;;3.60;1.60;;;;;;;;;;5060211;28;20028;-89
2022/09/17 07:20:02;;;;;;;4.53;1.75;;;;;;;;;;5056426;28;20029;-89
2022/09/17 07:22:27;;;;;;;1.25;1.15;;;;;;;;;;5046826;28;20271;-88
2022/09/17 07:24:53;;;;;;;1.50;1.40;;;;;;;;;;5056333;28;20017;-87
2022/09/17 07:27:18;;;;;;;3.08;1.50;;;;;;;;;;5056583;28;20017;-86
2022/09/17 07:29:43;;;;;;;7.15;1.55;;;;;;;;;;5048572;28;20024;-88
2022/09/17 07:32:09;;;;;;;3.58;1.80;;;;;;;;;;5048828;28;20051;-87
2022/09/17 07:34:34;;;;;;;3.70;1.58;;;;;;;;;;5057694;28;20100;-88
2022/09/17 07:36:59;;;;;;;3.75;1.88;;;;;;;;;;5057431;28;20167;-87
2022/09/17 07:39:25;;;;;;;14.10;1.55;;;;;;;;;;5059346;28;20376;-88
2022/09/17 07:41:50;;;;;;;2.13;1.80;;;;;;;;;;5065329;28;20024;-88
2022/09/17 07:44:16;;;;;;;3.88;1.80;;;;;;;;;;5065449;28;20398;-87
2022/09/17 07:46:41;;;;;;;2.80;1.38;;;;;;;;;;5059278;28;20033;-87
2022/09/17 07:49:06;;;;;;;5.32;2.00;;;;;;;;;;5056713;28;20075;-87
2022/09/17 07:51:32;;;;;;;3.20;1.70;;;;;;;;;;5058362;28;20414;-87
2022/09/17 07:53:58;;;;;;;2.28;1.58;;;;;;;;;;5057835;28;20025;-88
2022/09/17 07:56:25;;;;;;;3.97;1.52;;;;;;;;;;5038787;28;20032;-87
2022/09/17 07:58:51;;;;;;;4.05;2.40;;;;;;;;;;5052159;28;20025;-88
2022/09/17 08:01:17;;;;;;;2.78;1.52;;;;;;;;;;5056254;28;20397;-87
2022/09/17 08:03:47;;;;;;;3.60;1.70;;;;;;;;;;5039955;28;20028;-87
2022/09/17 08:06:16;;;;;;;1.83;1.70;;;;;;;;;;5056237;28;20035;-87
2022/09/17 08:08:42;;;;;;;2.90;1.67;;;;;;;;;;5044558;28;20032;-88
2022/09/17 08:11:16;;;;;;;4.43;1.50;;;;;;;;;;5041282;28;20124;-87
2022/09/17 08:13:42;;;;;;;2.60;1.60;;;;;;;;;;5058641;28;20070;-88
2022/09/17 08:16:11;;;;;;;4.82;2.13;;;;;;;;;;5059428;28;20083;-88
2022/09/17 08:18:38;;;;;;;2.80;1.88;;;;;;;;;;5057226;28;20048;-89
2022/09/17 08:21:06;;;;;;;4.35;1.90;;;;;;;;;;5042859;28;20048;-87
2022/09/17 08:23:34;;;;;;;6.90;1.85;;;;;;;;;;5062101;28;20423;-86
2022/09/17 08:26:00;;;;;;;6.25;1.77;;;;;;;;;;5061593;28;20032;-87
2022/09/17 08:28:27;;;;;;;5.18;2.03;;;;;;;;;;5060742;28;20029;-87
2022/09/17 08:30:54;;;;;;;4.18;1.77;;;;;;;;;;5050799;28;20040;-87
2022/09/17 08:33:20;;;;;;;8.10;2.15;;;;;;;;;;5042119;28;20080;-88
2022/09/17 08:36:42;;;;;;;3.47;1.50;;;;;;;;;;5042072;28;20068;-87
2022/09/17 08:39:09;;;;;;;2.05;1.40;;;;;;;;;;5050433;28;20033;-87
2022/09/17 08:42:20;;;;;;;5.45;1.85;;;;;;;;;;5062587;28;20029;-87
2022/09/17 08:44:46;;;;;;;4.35;2.10;;;;;;;;;;5060475;28;20355;-86
2022/09/17 08:47:23;;;;;;;10.00;1.92;;;;;;;;;;5041304;28;20536;-88
2022/09/17 08:49:57;;;;;;;3.80;1.58;;;;;;;;;;5059664;28;20379;-89
2022/09/17 08:52:58;;;;;;;2.33;1.50;;;;;;;;;;5057921;28;20017;-88
2022/09/17 08:55:43;;;;;;;7.47;2.55;;;;;;;;;;5061062;28;20040;-85
2022/09/17 08:58:21;;;;;;;4.80;1.83;;;;;;;;;;5058830;28;20053;-86
2022/09/17 09:01:26;;;;;;;8.75;2.25;;;;;;;;;;5063108;28;20053;-87
2022/09/17 09:04:28;;;;;;;13.98;2.00;;;;;;;;;;5043006;28;20025;-86
2022/09/17 09:06:57;;;;;;;;;;;;;;;;;;5044944;28;20075;-87
2022/09/17 09:09:27;;;;;;;5.72;1.42;;;;;;;;;;5066311;28;19908;-86
2022/09/17 09:12:05;;;;;;;5.95;1.65;;;;;;;;;;5042566;28;20115;-86
2022/09/17 09:14:49;;;;;;;8.10;1.55;;;;;;;;;;5042868;28;20029;-87
2022/09/17 09:17:20;;;;;;;2.63;1.30;;;;;;;;;;5059329;28;20032;-85
2022/09/17 09:19:48;;;;;;;5.87;2.07;;;;;;;;;;5049770;28;20082;-84
2022/09/17 09:22:32;;;;;;;15.10;2.28;;;;;;;;;;5064923;28;20048;-85
2022/09/17 09:25:08;;;;;;;4.15;1.40;;;;;;;;;;5053494;28;20100;-86
2022/09/17 09:27:46;;;;;;;4.60;1.45;;;;;;;;;;5057073;28;20359;-87
2022/09/17 09:30:15;;;;;;;10.23;2.15;;;;;;;;;;5052770;28;20029;-88
2022/09/17 09:33:17;;;;;;;5.68;1.63;;;;;;;;;;5047961;28;20040;-86
2022/09/17 09:35:43;;;;;;;4.07;1.55;;;;;;;;;;5059016;28;20126;-88
2022/09/17 09:38:08;;;;;;;8.32;1.70;;;;;;;;;;5059868;28;20043;-88
2022/09/17 09:40:55;;;;;;;6.85;1.50;;;;;;;;;;5074944;28;20017;-88
2022/09/17 09:43:32;;;;;;;5.28;1.67;;;;;;;;;;5065180;28;20029;-87
2022/09/17 09:46:07;;;;;;;7.03;1.45;;;;;;;;;;5062931;28;20021;-84
2022/09/17 09:48:38;;;;;;;3.40;1.42;;;;;;;;;;5060941;28;20116;-84
2022/09/17 09:51:20;;;;;;;8.32;1.83;;;;;;;;;;5045102;28;20082;-86
2022/09/17 09:54:09;;;;;;;6.95;1.40;;;;;;;;;;5057953;28;20074;-85
2022/09/17 09:57:16;;;;;;;1.60;1.17;;;;;;;;;;5062876;28;20122;-86
2022/09/17 09:59:44;;;;;;;3.05;1.30;;;;;;;;;;5036654;28;20044;-87
2022/09/17 10:02:10;;;;;;;6.35;1.88;;;;;;;;;;5053326;28;20036;-85
2022/09/17 10:04:35;;;;;;;6.47;1.30;;;;;;;;;;5041556;28;20025;-85
2022/09/17 10:07:09;;;;;;;2.58;1.20;;;;;;;;;;5048770;28;20029;-85
2022/09/17 10:09:37;;;;;;;10.90;1.80;;;;;;;;;;5065297;28;20070;-85
2022/09/17 10:12:07;;;;;;;3.03;1.67;;;;;;;;;;5055312;28;20033;-82
2022/09/17 10:14:40;;;;;;;6.25;1.70;;;;;;;;;;5058958;28;20040;-81
2022/09/17 10:17:16;;;;;;;3.75;1.80;;;;;;;;;;5059447;28;20025;-84
2022/09/17 10:19:43;;;;;;;2.15;1.40;;;;;;;;;;5069815;28;20126;-81
2022/09/17 10:22:21;;;;;;;2.22;1.27;;;;;;;;;;5074403;28;20051;-84
2022/09/17 10:24:46;;;;;;;2.70;1.13;;;;;;;;;;5072480;28;20090;-82
2022/09/17 10:27:18;;;;;;;3.25;1.13;;;;;;;;;;5073425;28;20025;-80
2022/09/17 10:29:46;;;;;;;8.20;1.77;;;;;;;;;;5061915;28;20021;-82
2022/09/17 10:32:19;;;;;;;3.20;1.27;;;;;;;;;;5055943;28;20033;-82
2022/09/17 10:34:58;;;;;;;1.90;1.02;;;;;;;;;;5056072;28;20507;-82
2022/09/17 10:37:45;;;;;;;2.80;1.25;;;;;;;;;;5056729;28;20429;-83
2022/09/17 10:40:19;;;;;;;4.00;1.67;;;;;;;;;;5056926;28;20104;-83
2022/09/17 10:42:50;;;;;;;5.90;1.42;;;;;;;;;;5057674;28;20036;-82
2022/09/17 10:45:35;;;;;;;4.75;1.00;;;;;;;;;;5057566;28;20017;-83
2022/09/17 10:48:01;;;;;;;4.55;1.27;;;;;;;;;;5056794;28;20025;-84
2022/09/17 10:50:33;;;;;;;2.30;1.02;;;;;;;;;;5051179;28;20020;-82
2022/09/17 10:53:04;;;;;;;2.92;0.98;;;;;;;;;;5040909;28;20029;-82
2022/09/17 10:55:37;;;;;;;2.58;1.20;;;;;;;;;;5057318;28;20037;-82
2022/09/17 10:58:08;;;;;;;2.50;0.98;;;;;;;;;;5056974;28;20460;-81
2022/09/17 11:00:53;;;;;;;1.40;0.82;;;;;;;;;;5043516;28;20020;-87
2022/09/17 11:03:37;;;;;;;2.05;0.95;;;;;;;;;;5049875;28;20411;-86
2022/09/17 11:06:14;;;;;;;4.68;1.13;;;;;;;;;;5059099;28;20025;-87
2022/09/17 11:09:04;;;;;;;1.80;0.98;;;;;;;;;;5043092;28;20031;-86
2022/09/17 11:11:51;;;;;;;3.30;1.20;;;;;;;;;;5057886;28;20445;-86
2022/09/17 11:14:58;;;;;;;1.50;1.08;;;;;;;;;;5071686;28;20025;-86
2022/09/17 11:18:07;;;;;;;1.48;0.90;;;;;;;;;;5053641;28;20044;-87
2022/09/17 11:20:56;;;;;;;2.85;0.98;;;;;;;;;;5055443;28;20467;-86
2022/09/17 11:24:05;;;;;;;1.60;0.90;;;;;;;;;;5048789;28;20037;-81
2022/09/17 11:26:44;;;;;;;1.35;0.75;;;;;;;;;;5055102;28;20375;-83
2022/09/17 11:29:34;;;;;;;2.38;1.13;;;;;;;;;;5044484;28;20028;-84
2022/09/17 11:32:25;;;;;;;5.72;1.23;;;;;;;;;;5041642;28;20049;-83
2022/09/17 11:35:10;;;;;;;1.55;1.00;;;;;;;;;;5052842;28;20366;-84
2022/09/17 11:37:42;;;;;;;6.00;1.02;;;;;;;;;;5037996;28;20111;-83
2022/09/17 11:40:07;;;;;;;2.00;1.15;;;;;;;;;;5055923;28;20117;-84
2022/09/17 11:42:44;;;;;;;3.55;1.13;;;;;;;;;;5040827;28;20452;-82
2022/09/17 11:45:26;;;;;;;2.08;1.10;;;;;;;;;;5062234;28;20021;-84
2022/09/17 11:48:31;;;;;;;2.25;0.70;;;;;;;;;;5061995;28;20441;-83
2022/09/17 11:51:05;;;;;;;7.82;1.10;;;;;;;;;;5017115;28;20066;-85
2022/09/17 11:53:38;;;;;;;4.43;0.98;;;;;;;;;;5057799;28;20047;-84
2022/09/17 11:56:16;;;;;;;1.50;0.93;;;;;;;;;;5057115;28;20399;-86
2022/09/17 11:58:48;;;;;;;3.22;0.90;;;;;;;;;;5043294;28;20046;-87
2022/09/17 12:01:36;;;;;;;2.05;1.08;;;;;;;;;;5061211;28;20051;-87
2022/09/17 12:04:23;;;;;;;1.40;0.80;;;;;;;;;;5060823;28;20029;-87
2022/09/17 12:06:58;;;;;;;2.58;0.98;;;;;;;;;;5061730;28;20810;-86
2022/09/17 12:09:27;;;;;;;6.78;0.88;;;;;;;;;;5064071;28;20021;-87
2022/09/17 12:12:17;;;;;;;3.72;1.00;;;;;;;;;;5061098;28;20025;-88
2022/09/17 12:15:20;;;;;;;3.20;1.17;;;;;;;;;;5053678;28;20047;-85
2022/09/17 12:17:54;;;;;;;1.83;1.00;;;;;;;;;;5036843;28;20041;-87
2022/09/17 12:20:30;;;;;;;3.90;1.45;;;;;;;;;;5060740;28;20024;-87
2022/09/17 12:22:58;;;;;;;5.00;1.25;;;;;;;;;;5059699;28;20082;-86
2022/09/17 12:25:29;;;;;;;4.97;1.40;;;;;;;;;;5059958;28;20044;-86
2022/09/17 12:28:20;;;;;;;3.15;1.05;;;;;;;;;;5050832;28;20048;-88
2022/09/17 12:30:57;;;;;;;1.42;0.88;;;;;;;;;;5039046;28;20033;-87
2022/09/17 12:33:32;;;;;;;2.42;1.30;;;;;;;;;;5052334;28;20116;-87
2022/09/17 12:36:18;;;;;;;3.47;1.15;;;;;;;;;;5057174;28;20079;-87
2022/09/17 12:39:10;;;;;;;3.75;1.00;;;;;;;;;;5039970;28;20107;-88
2022/09/17 12:41:54;;;;;;;3.05;1.25;;;;;;;;;;5059175;28;20031;-88
2022/09/17 12:45:00;;;;;;;2.72;1.05;;;;;;;;;;5054745;28;20079;-87
2022/09/17 12:47:32;;;;;;;2.35;0.90;;;;;;;;;;5027370;28;20028;-88
2022/09/17 12:50:24;;;;;;;0.82;0.75;;;;;;;;;;5064919;28;20526;-88
2022/09/17 12:53:01;;;;;;;0.70;0.70;;;;;;;;;;5071830;28;20047;-88
2022/09/17 12:55:29;;;;;;;2.03;1.00;;;;;;;;;;5081243;28;20452;-86
2022/09/17 12:58:13;;;;;;;1.30;0.80;;;;;;;;;;5085656;28;20028;-87
2022/09/17 13:00:43;;;;;;;3.72;1.33;;;;;;;;;;5075928;28;20032;-84
2022/09/17 13:03:21;;;;;;;0.60;0.60;;;;;;;;;;5074501;28;20032;-83
2022/09/17 13:05:55;;;;;;;0.85;0.85;;;;;;;;;;5071327;28;20021;-84
2022/09/17 13:08:56;;;;;;;4.32;1.00;;;;;;;;;;5053546;28;20497;-86
2022/09/17 13:11:54;;;;;;;6.32;1.13;;;;;;;;;;5051285;28;20025;-87
2022/09/17 13:14:41;;;;;;;0.85;0.70;;;;;;;;;;5034455;28;20092;-85
2022/09/17 13:17:25;;;;;;;2.83;0.80;;;;;;;;;;5060425;28;20039;-85
2022/09/17 13:19:58;;;;;;;0.80;0.80;;;;;;;;;;5065882;28;20025;-85
2022/09/17 13:22:27;;;;;;;0.85;0.85;;;;;;;;;;5051120;28;20043;-83
2022/09/17 13:25:06;;;;;;;4.07;0.90;;;;;;;;;;5058746;28;20048;-84
2022/09/17 13:27:34;;;;;;;0.63;0.63;;;;;;;;;;5056831;28;20029;-85
2022/09/17 13:29:59;;;;;;;0.68;0.68;;;;;;;;;;5057879;28;20494;-84
2022/09/17 13:32:31;;;;;;;1.20;1.00;;;;;;;;;;5059362;28;20028;-84
2022/09/17 13:34:56;;;;;;;1.00;0.70;;;;;;;;;;5059796;28;20028;-86
2022/09/17 13:37:23;;;;;;;1.75;1.30;;;;;;;;;;5058484;28;20037;-85
2022/09/17 13:39:49;;;;;;;0.70;0.70;;;;;;;;;;5058739;28;20036;-85
2022/09/17 13:42:20;;;;;;;1.63;0.90;;;;;;;;;;5057421;28;20031;-82
2022/09/17 13:45:06;;;;;;;1.15;0.93;;;;;;;;;;5058296;28;20025;-85
2022/09/17 13:47:34;;;;;;;0.57;0.57;;;;;;;;;;5055338;28;20445;-85
2022/09/17 13:50:33;;;;;;;2.50;0.68;;;;;;;;;;5056962;28;20021;-82
2022/09/17 13:53:15;;;;;;;5.25;0.93;;;;;;;;;;5051930;28;20097;-84
2022/09/17 13:55:59;;;;;;;1.20;0.88;;;;;;;;;;5058959;28;20040;-84
2022/09/17 13:58:33;;;;;;;2.58;1.00;;;;;;;;;;5057081;28;20029;-85
2022/09/17 14:01:04;;;;;;;2.38;0.98;;;;;;;;;;5058069;28;20029;-84
2022/09/17 14:03:29;;;;;;;1.07;0.80;;;;;;;;;;5040179;28;20025;-83
2022/09/17 14:06:04;;;;;;;1.20;0.63;;;;;;;;;;5058095;28;20254;-84
2022/09/17 14:08:54;;;;;;;2.05;0.93;;;;;;;;;;5057455;28;20025;-84
2022/09/17 14:11:22;;;;;;;3.10;1.20;;;;;;;;;;5057959;28;20045;-84
2022/09/17 14:13:47;;;;;;;0.55;0.50;;;;;;;;;;5057669;28;20230;-84
2022/09/17 14:16:32;;;;;;;1.17;0.98;;;;;;;;;;5058552;28;20021;-84
2022/09/17 14:19:04;;;;;;;4.13;1.02;;;;;;;;;;5057640;28;20025;-83
2022/09/17 14:21:31;;;;;;;2.00;0.82;;;;;;;;;;5063794;28;20021;-82
2022/09/17 14:24:00;;;;;;;1.92;0.82;;;;;;;;;;5067095;28;20036;-82
2022/09/17 14:26:53;;;;;;;2.25;0.90;;;;;;;;;;5067662;28;20051;-82
2022/09/17 14:29:56;;;;;;;2.40;1.52;;;;;;;;;;5069629;28;20031;-81
2022/09/17 14:32:34;;;;;;;2.47;1.02;;;;;;;;;;5036295;28;20047;-82
2022/09/17 14:35:03;;;;;;;2.17;1.10;;;;;;;;;;5067923;28;20079;-82
2022/09/17 14:37:29;;;;;;;2.72;1.23;;;;;;;;;;5057631;28;20041;-83
2022/09/17 14:39:54;;;;;;;3.60;1.23;;;;;;;;;;5056497;28;20063;-83
2022/09/17 14:42:27;;;;;;;3.45;0.95;;;;;;;;;;5056341;28;20024;-83
2022/09/17 14:45:03;;;;;;;2.83;1.30;;;;;;;;;;5056915;28;20100;-83
2022/09/17 14:47:29;;;;;;;1.05;0.75;;;;;;;;;;5058252;28;20025;-83
2022/09/17 14:49:54;;;;;;;2.63;1.25;;;;;;;;;;5057073;28;20434;-82
2022/09/17 14:52:26;;;;;;;1.23;0.93;;;;;;;;;;5057442;28;20504;-83
2022/09/17 14:55:29;;;;;;;3.13;0.88;;;;;;;;;;5057471;28;20070;-83
2022/09/17 14:57:57;;;;;;;2.40;1.17;;;;;;;;;;4971825;28;20034;-82
2022/09/17 15:00:31;;;;;;;2.22;0.80;;;;;;;;;;5041044;28;20460;-82
2022/09/17 15:03:00;;;;;;;2.60;0.98;;;;;;;;;;5056854;28;20074;-82
2022/09/17 15:05:34;;;;;;;1.90;0.93;;;;;;;;;;5056645;28;20563;-82
2022/09/17 15:08:08;;;;;;;1.95;1.17;;;;;;;;;;5054872;28;20029;-82
2022/09/17 15:10:55;;;;;;;1.45;1.02;;;;;;;;;;5055858;28;20099;-82
2022/09/17 15:13:26;;;;;;;1.75;0.73;;;;;;;;;;5041897;28;20403;-82
2022/09/17 15:16:14;;;;;;;4.43;1.30;;;;;;;;;;5056898;28;20017;-83
2022/09/17 15:18:47;;;;;;;1.40;1.02;;;;;;;;;;5040775;28;20049;-81
2022/09/17 15:21:22;;;;;;;1.48;0.77;;;;;;;;;;5056162;28;20040;-82